Time;durP1;ratioP1;P1;durP2;ratioP2;P2;SDS_P1;SDS_P2;PMS_P1;PMS_P2;Temp;Humidity;BMP_temperature;BMP_pressure;BME280_temperature;BME280_humidity;BME280_pressure;Samples;Min_cycle;Max_cycle;Signal;HPM_P1;HPM_P2
2023/03/12 00:00:17;;;;;;;6.65;3.72;;;;;;;;;;5113833;28;20039;-81
2023/03/12 00:02:43;;;;;;;4.47;3.70;;;;;;;;;;5113945;28;20103;-81
2023/03/12 00:05:08;;;;;;;4.80;3.70;;;;;;;;;;5114070;28;20031;-81
2023/03/12 00:07:35;;;;;;;5.25;3.53;;;;;;;;;;5113751;28;20473;-80
2023/03/12 00:10:02;;;;;;;3.53;2.95;;;;;;;;;;5095310;28;20352;-81
2023/03/12 00:12:27;;;;;;;4.05;2.97;;;;;;;;;;5095511;28;20085;-80
2023/03/12 00:14:53;;;;;;;4.13;3.30;;;;;;;;;;5095824;28;20032;-81
2023/03/12 00:17:18;;;;;;;4.63;3.30;;;;;;;;;;5113536;28;20486;-81
2023/03/12 00:19:44;;;;;;;4.63;3.00;;;;;;;;;;5095498;28;20023;-81
2023/03/12 00:22:09;;;;;;;3.55;3.05;;;;;;;;;;5113507;28;20474;-81
2023/03/12 00:24:35;;;;;;;5.30;3.47;;;;;;;;;;5113576;28;20039;-81
2023/03/12 00:27:00;;;;;;;3.38;2.90;;;;;;;;;;5113394;28;20510;-81
2023/03/12 00:29:25;;;;;;;3.92;2.90;;;;;;;;;;5077365;28;20028;-82
2023/03/12 00:31:51;;;;;;;4.70;3.20;;;;;;;;;;5078430;28;20043;-80
2023/03/12 00:34:16;;;;;;;3.97;3.05;;;;;;;;;;5113555;28;20042;-82
2023/03/12 00:36:42;;;;;;;3.42;2.67;;;;;;;;;;5113181;28;20169;-82
2023/03/12 00:39:07;;;;;;;3.30;2.80;;;;;;;;;;5113221;28;20020;-81
2023/03/12 00:41:33;;;;;;;4.45;3.03;;;;;;;;;;5094823;28;20035;-81
2023/03/12 00:43:58;;;;;;;4.68;3.20;;;;;;;;;;5061386;28;20023;-81
2023/03/12 00:46:23;;;;;;;3.22;2.72;;;;;;;;;;5095310;28;20363;-81
2023/03/12 00:48:49;;;;;;;3.63;2.95;;;;;;;;;;5094964;28;20429;-82
2023/03/12 00:51:14;;;;;;;4.72;2.63;;;;;;;;;;5077969;28;20036;-82
2023/03/12 00:53:40;;;;;;;3.72;2.70;;;;;;;;;;5077961;28;20035;-82
2023/03/12 00:56:06;;;;;;;3.00;2.38;;;;;;;;;;5094819;28;20035;-81
2023/03/12 00:58:31;;;;;;;3.78;2.60;;;;;;;;;;5112936;28;20035;-82
2023/03/12 01:00:57;;;;;;;3.10;2.67;;;;;;;;;;5113514;28;20027;-82
2023/03/12 01:03:22;;;;;;;3.65;2.58;;;;;;;;;;5094962;28;20488;-81
2023/03/12 01:05:52;;;;;;;3.38;2.80;;;;;;;;;;5094978;28;20363;-82
2023/03/12 01:08:18;;;;;;;3.63;2.60;;;;;;;;;;5078577;28;20508;-82
2023/03/12 01:10:44;;;;;;;3.40;2.53;;;;;;;;;;5095026;28;20089;-82
2023/03/12 01:13:09;;;;;;;4.70;2.78;;;;;;;;;;5113081;28;20027;-82
2023/03/12 01:15:35;;;;;;;4.47;2.50;;;;;;;;;;5077951;28;20036;-82
2023/03/12 01:18:00;;;;;;;3.45;2.58;;;;;;;;;;5094959;28;20039;-82
2023/03/12 01:20:26;;;;;;;2.95;2.50;;;;;;;;;;5094659;28;20032;-81
2023/03/12 01:22:51;;;;;;;4.63;3.03;;;;;;;;;;5095054;28;20032;-82
2023/03/12 01:25:17;;;;;;;3.60;2.85;;;;;;;;;;5078391;28;20038;-83
2023/03/12 01:27:42;;;;;;;4.57;2.70;;;;;;;;;;5113080;28;20035;-82
2023/03/12 01:30:08;;;;;;;3.90;2.67;;;;;;;;;;5113093;28;20027;-82
2023/03/12 01:32:34;;;;;;;6.13;2.80;;;;;;;;;;5111407;28;20043;-83
2023/03/12 01:34:59;;;;;;;4.25;2.58;;;;;;;;;;5112889;28;20038;-82
2023/03/12 01:37:26;;;;;;;3.00;2.70;;;;;;;;;;5112813;28;20115;-82
2023/03/12 01:39:51;;;;;;;4.75;2.60;;;;;;;;;;5094672;28;20111;-82
2023/03/12 01:42:17;;;;;;;3.95;2.50;;;;;;;;;;5081387;28;20463;-82
2023/03/12 01:44:57;;;;;;;3.92;2.47;;;;;;;;;;5098373;28;20035;-82
2023/03/12 01:47:23;;;;;;;3.63;2.58;;;;;;;;;;5098636;28;20429;-82
2023/03/12 01:49:50;;;;;;;5.70;2.55;;;;;;;;;;5116964;28;20031;-81
2023/03/12 01:52:19;;;;;;;4.53;2.30;;;;;;;;;;5096027;28;20030;-81
2023/03/12 01:54:57;;;;;;;3.08;2.47;;;;;;;;;;5090028;28;20016;-81
2023/03/12 01:57:27;;;;;;;4.68;2.15;;;;;;;;;;5116577;28;20489;-81
2023/03/12 01:59:57;;;;;;;3.47;2.70;;;;;;;;;;5098367;28;20474;-81
2023/03/12 02:02:25;;;;;;;2.95;2.20;;;;;;;;;;5081347;28;20045;-82
2023/03/12 02:04:57;;;;;;;3.80;2.40;;;;;;;;;;5099135;28;20474;-81
2023/03/12 02:07:22;;;;;;;2.20;1.98;;;;;;;;;;5098164;28;20458;-81
2023/03/12 02:09:48;;;;;;;3.38;2.35;;;;;;;;;;5116199;28;20030;-82
2023/03/12 02:12:15;;;;;;;2.42;2.15;;;;;;;;;;5080941;28;20395;-81
2023/03/12 02:14:41;;;;;;;5.03;2.40;;;;;;;;;;5098155;28;20606;-81
2023/03/12 02:17:07;;;;;;;2.80;2.10;;;;;;;;;;5097912;28;20032;-81
2023/03/12 02:20:06;;;;;;;2.50;1.95;;;;;;;;;;5097814;28;20472;-81
2023/03/12 02:22:34;;;;;;;2.90;2.10;;;;;;;;;;5081119;28;20035;-81
2023/03/12 02:25:17;;;;;;;2.70;2.13;;;;;;;;;;5116231;28;20054;-82
2023/03/12 02:27:43;;;;;;;4.22;2.25;;;;;;;;;;5116006;28;20378;-81
2023/03/12 02:30:09;;;;;;;2.50;2.13;;;;;;;;;;5097810;28;20042;-81
2023/03/12 02:32:37;;;;;;;4.88;2.17;;;;;;;;;;5097577;28;20046;-81
2023/03/12 02:35:04;;;;;;;2.13;1.92;;;;;;;;;;5097951;28;20031;-80
2023/03/12 02:37:29;;;;;;;2.20;1.85;;;;;;;;;;5097450;28;20066;-80
2023/03/12 02:40:09;;;;;;;2.47;1.80;;;;;;;;;;5080727;28;20058;-80
2023/03/12 02:42:34;;;;;;;3.08;2.03;;;;;;;;;;5097254;28;20054;-81
2023/03/12 02:45:01;;;;;;;2.70;1.90;;;;;;;;;;5097229;28;20028;-80
2023/03/12 02:47:26;;;;;;;2.95;1.98;;;;;;;;;;5097691;28;20058;-80
2023/03/12 02:49:51;;;;;;;2.20;1.70;;;;;;;;;;5115820;28;20059;-80
2023/03/12 02:52:17;;;;;;;2.55;2.03;;;;;;;;;;5114506;28;20036;-81
2023/03/12 02:54:42;;;;;;;3.15;2.10;;;;;;;;;;5115468;28;20472;-81
2023/03/12 02:57:08;;;;;;;3.15;2.05;;;;;;;;;;5080353;28;20057;-82
2023/03/12 02:59:33;;;;;;;2.53;1.85;;;;;;;;;;5097398;28;20067;-81
2023/03/12 03:01:59;;;;;;;1.92;1.63;;;;;;;;;;5096972;28;20047;-81
2023/03/12 03:04:26;;;;;;;2.55;1.85;;;;;;;;;;5097344;28;20020;-81
2023/03/12 03:06:52;;;;;;;3.42;1.83;;;;;;;;;;5115563;28;20034;-81
2023/03/12 03:09:19;;;;;;;2.10;1.90;;;;;;;;;;5096823;28;20103;-81
2023/03/12 03:11:45;;;;;;;2.75;2.00;;;;;;;;;;5080207;28;20051;-80
2023/03/12 03:14:10;;;;;;;3.40;1.90;;;;;;;;;;5079937;28;20399;-81
2023/03/12 03:16:35;;;;;;;2.38;1.70;;;;;;;;;;5097361;28;20092;-81
2023/03/12 03:19:01;;;;;;;2.17;1.80;;;;;;;;;;5096701;28;20027;-81
2023/03/12 03:21:26;;;;;;;2.42;1.80;;;;;;;;;;5114983;28;20095;-81
2023/03/12 03:23:52;;;;;;;1.88;1.55;;;;;;;;;;5080251;28;20103;-81
2023/03/12 03:26:19;;;;;;;3.55;1.98;;;;;;;;;;5096617;28;20385;-82
2023/03/12 03:28:45;;;;;;;3.70;1.95;;;;;;;;;;5096657;28;20042;-82
2023/03/12 03:31:10;;;;;;;3.20;1.73;;;;;;;;;;5096616;28;20490;-82
2023/03/12 03:33:37;;;;;;;2.47;1.67;;;;;;;;;;5079906;28;20034;-82
2023/03/12 03:36:04;;;;;;;2.20;1.80;;;;;;;;;;5114567;28;20038;-82
2023/03/12 03:38:30;;;;;;;1.65;1.55;;;;;;;;;;5079629;28;20397;-82
2023/03/12 03:40:55;;;;;;;2.70;1.60;;;;;;;;;;5096309;28;20032;-81
2023/03/12 03:43:21;;;;;;;2.58;1.52;;;;;;;;;;5114553;28;20108;-81
2023/03/12 03:45:47;;;;;;;2.78;1.70;;;;;;;;;;5096247;28;20027;-81
2023/03/12 03:48:13;;;;;;;2.05;1.70;;;;;;;;;;5079442;28;20027;-81
2023/03/12 03:50:40;;;;;;;1.75;1.60;;;;;;;;;;5096611;28;20076;-81
2023/03/12 03:53:06;;;;;;;1.83;1.50;;;;;;;;;;5096574;28;20039;-80
2023/03/12 03:55:36;;;;;;;2.75;1.48;;;;;;;;;;5096099;28;20038;-81
2023/03/12 03:58:01;;;;;;;2.13;1.50;;;;;;;;;;5096144;28;20055;-81
2023/03/12 04:00:27;;;;;;;1.50;1.40;;;;;;;;;;5114534;28;20035;-81
2023/03/12 04:02:52;;;;;;;2.88;1.67;;;;;;;;;;5079132;28;20031;-82
2023/03/12 04:05:19;;;;;;;1.80;1.48;;;;;;;;;;5078947;28;20066;-81
2023/03/12 04:07:44;;;;;;;2.72;1.60;;;;;;;;;;5096615;28;20033;-81
2023/03/12 04:10:10;;;;;;;3.30;1.70;;;;;;;;;;5096447;28;20102;-83
2023/03/12 04:12:36;;;;;;;1.83;1.50;;;;;;;;;;5114738;28;20027;-82
2023/03/12 04:15:01;;;;;;;1.42;1.33;;;;;;;;;;5096742;28;20115;-82
2023/03/12 04:17:27;;;;;;;2.80;1.42;;;;;;;;;;5096192;28;20034;-82
2023/03/12 04:19:52;;;;;;;2.25;1.48;;;;;;;;;;5114204;28;20055;-82
2023/03/12 04:22:17;;;;;;;1.50;1.40;;;;;;;;;;5078794;28;20142;-82
2023/03/12 04:24:43;;;;;;;1.80;1.42;;;;;;;;;;5062558;28;20027;-82
2023/03/12 04:27:08;;;;;;;2.15;1.70;;;;;;;;;;5114430;28;20116;-81
2023/03/12 04:29:33;;;;;;;2.13;1.45;;;;;;;;;;5096129;28;20028;-81
2023/03/12 04:31:59;;;;;;;3.20;1.80;;;;;;;;;;5114316;28;20351;-81
2023/03/12 04:34:24;;;;;;;1.48;1.30;;;;;;;;;;5079578;28;20139;-81
2023/03/12 04:36:50;;;;;;;3.05;1.48;;;;;;;;;;5096207;28;20028;-82
2023/03/12 04:39:19;;;;;;;1.70;1.42;;;;;;;;;;5095946;28;20112;-83
2023/03/12 04:41:44;;;;;;;2.45;1.33;;;;;;;;;;5097784;28;20092;-84
2023/03/12 04:44:10;;;;;;;10.40;2.53;;;;;;;;;;5098355;28;20031;-82
2023/03/12 04:46:36;;;;;;;2.22;1.25;;;;;;;;;;5078799;28;20114;-83
2023/03/12 04:49:02;;;;;;;3.47;1.63;;;;;;;;;;5095990;28;20103;-83
2023/03/12 04:51:28;;;;;;;1.38;1.25;;;;;;;;;;5095657;28;20035;-82
2023/03/12 04:53:54;;;;;;;1.88;1.35;;;;;;;;;;5078863;28;20028;-82
2023/03/12 04:56:20;;;;;;;1.48;1.15;;;;;;;;;;5078266;28;20362;-82
2023/03/12 04:58:45;;;;;;;1.30;1.20;;;;;;;;;;5095119;28;20035;-82
2023/03/12 05:01:31;;;;;;;2.47;1.50;;;;;;;;;;5094984;28;20036;-82
2023/03/12 05:03:57;;;;;;;1.90;1.33;;;;;;;;;;5095059;28;20032;-83
2023/03/12 05:06:23;;;;;;;1.38;1.20;;;;;;;;;;5095030;28;20030;-83
2023/03/12 05:08:50;;;;;;;2.40;1.30;;;;;;;;;;5077709;28;20390;-83
2023/03/12 05:11:16;;;;;;;1.83;1.15;;;;;;;;;;5094800;28;20020;-83
2023/03/12 05:13:42;;;;;;;2.78;1.15;;;;;;;;;;5094925;28;20019;-83
2023/03/12 05:16:08;;;;;;;1.27;1.17;;;;;;;;;;5096603;28;20491;-83
2023/03/12 05:18:34;;;;;;;1.25;1.15;;;;;;;;;;5099239;28;20019;-82
2023/03/12 05:21:20;;;;;;;2.28;1.30;;;;;;;;;;5100064;28;20027;-83
2023/03/12 05:23:46;;;;;;;4.93;1.38;;;;;;;;;;5081817;28;20100;-83
2023/03/12 05:26:19;;;;;;;1.67;1.10;;;;;;;;;;5083830;28;20420;-84
2023/03/12 05:28:45;;;;;;;1.95;1.35;;;;;;;;;;5102397;28;20015;-83
2023/03/12 05:31:11;;;;;;;2.05;1.30;;;;;;;;;;5099857;28;20115;-83
2023/03/12 05:33:37;;;;;;;3.55;1.20;;;;;;;;;;5117535;28;20027;-83
2023/03/12 05:36:03;;;;;;;2.35;1.15;;;;;;;;;;5083036;28;20096;-83
2023/03/12 05:38:28;;;;;;;2.42;1.42;;;;;;;;;;5099628;28;20032;-83
2023/03/12 05:40:55;;;;;;;1.27;1.17;;;;;;;;;;5120003;28;20141;-82
2023/03/12 05:43:21;;;;;;;1.80;1.30;;;;;;;;;;5086651;28;20493;-83
2023/03/12 05:45:46;;;;;;;1.85;1.30;;;;;;;;;;5100742;28;20164;-83
2023/03/12 05:48:12;;;;;;;1.70;1.40;;;;;;;;;;5117200;28;20371;-84
2023/03/12 05:50:37;;;;;;;2.78;1.40;;;;;;;;;;5098244;28;20034;-82
2023/03/12 05:53:03;;;;;;;3.45;1.30;;;;;;;;;;5117591;28;20384;-83
2023/03/12 05:55:28;;;;;;;1.27;1.10;;;;;;;;;;5098932;28;20111;-83
2023/03/12 05:57:53;;;;;;;1.70;1.25;;;;;;;;;;5102322;28;20036;-82
2023/03/12 06:00:19;;;;;;;2.05;1.40;;;;;;;;;;5119161;28;20127;-82
2023/03/12 06:02:45;;;;;;;3.10;1.30;;;;;;;;;;5083680;28;20030;-84
2023/03/12 06:05:18;;;;;;;1.58;1.15;;;;;;;;;;5087373;28;20024;-82
2023/03/12 06:07:43;;;;;;;4.53;1.60;;;;;;;;;;5068076;28;20047;-80
2023/03/12 06:10:10;;;;;;;1.58;1.10;;;;;;;;;;5097405;28;20462;-80
2023/03/12 06:12:35;;;;;;;1.90;1.38;;;;;;;;;;5097711;28;20042;-81
2023/03/12 06:15:00;;;;;;;2.30;1.20;;;;;;;;;;5115966;28;20027;-81
2023/03/12 06:17:31;;;;;;;2.80;1.58;;;;;;;;;;5098782;28;20402;-82
2023/03/12 06:19:57;;;;;;;1.45;1.15;;;;;;;;;;5082834;28;20047;-83
2023/03/12 06:22:22;;;;;;;1.42;1.27;;;;;;;;;;5098467;28;20115;-80
2023/03/12 06:24:47;;;;;;;1.40;1.30;;;;;;;;;;5101431;28;20073;-82
2023/03/12 06:27:13;;;;;;;3.35;1.20;;;;;;;;;;5082430;28;20020;-83
2023/03/12 06:29:39;;;;;;;1.60;1.30;;;;;;;;;;5102624;28;20020;-83
2023/03/12 06:32:05;;;;;;;1.52;1.40;;;;;;;;;;5067656;28;20460;-82
2023/03/12 06:34:31;;;;;;;1.95;1.00;;;;;;;;;;5100319;28;20123;-82
2023/03/12 06:36:56;;;;;;;2.13;1.20;;;;;;;;;;5083499;28;20402;-81
2023/03/12 06:39:22;;;;;;;1.88;1.27;;;;;;;;;;5118509;28;20020;-80
2023/03/12 06:41:47;;;;;;;3.83;1.50;;;;;;;;;;5083966;28;20035;-80
2023/03/12 06:44:12;;;;;;;2.38;1.50;;;;;;;;;;5082667;28;20031;-81
2023/03/12 06:46:38;;;;;;;1.85;1.20;;;;;;;;;;5082823;28;20035;-80
2023/03/12 06:49:04;;;;;;;3.50;1.38;;;;;;;;;;5083408;28;20039;-81
2023/03/12 06:51:30;;;;;;;1.55;1.25;;;;;;;;;;5100036;28;20512;-79
2023/03/12 06:53:55;;;;;;;4.57;1.40;;;;;;;;;;5082552;28;20627;-82
2023/03/12 06:56:21;;;;;;;2.63;1.67;;;;;;;;;;5081602;28;20445;-81
2023/03/12 06:58:46;;;;;;;2.90;1.33;;;;;;;;;;5081287;28;20027;-81
2023/03/12 07:01:11;;;;;;;8.18;1.65;;;;;;;;;;5098134;28;20390;-82
2023/03/12 07:03:37;;;;;;;6.07;1.95;;;;;;;;;;5100035;28;20034;-82
2023/03/12 07:06:02;;;;;;;5.50;1.45;;;;;;;;;;5124427;28;20031;-81
2023/03/12 07:08:31;;;;;;;4.65;1.35;;;;;;;;;;5097703;28;20035;-82
2023/03/12 07:10:59;;;;;;;2.95;1.50;;;;;;;;;;5081664;28;20059;-81
2023/03/12 07:13:24;;;;;;;10.20;1.65;;;;;;;;;;5098574;28;20061;-81
2023/03/12 07:15:50;;;;;;;2.95;1.75;;;;;;;;;;5097905;28;20031;-82
2023/03/12 07:18:15;;;;;;;6.63;1.83;;;;;;;;;;5098314;28;20106;-82
2023/03/12 07:20:42;;;;;;;2.85;1.60;;;;;;;;;;5098253;28;20440;-81
2023/03/12 07:23:08;;;;;;;3.85;1.50;;;;;;;;;;5116649;28;20123;-80
2023/03/12 07:25:38;;;;;;;5.45;1.60;;;;;;;;;;5098128;28;20020;-81
2023/03/12 07:28:04;;;;;;;2.40;1.38;;;;;;;;;;5098612;28;20313;-81
2023/03/12 07:30:32;;;;;;;2.03;1.35;;;;;;;;;;5098001;28;20054;-82
2023/03/12 07:33:02;;;;;;;3.67;1.50;;;;;;;;;;5097718;28;20363;-81
2023/03/12 07:35:28;;;;;;;3.47;1.50;;;;;;;;;;5065041;28;20091;-82
2023/03/12 07:37:53;;;;;;;1.77;1.30;;;;;;;;;;5097574;28;20054;-82
2023/03/12 07:40:18;;;;;;;4.07;1.88;;;;;;;;;;5080928;28;20039;-82
2023/03/12 07:42:44;;;;;;;4.85;1.42;;;;;;;;;;5063940;28;20075;-82
2023/03/12 07:45:10;;;;;;;3.17;1.30;;;;;;;;;;5098691;28;20035;-84
2023/03/12 07:47:35;;;;;;;1.80;1.25;;;;;;;;;;5097248;28;20078;-82
2023/03/12 07:50:01;;;;;;;1.20;1.15;;;;;;;;;;5097165;28;20059;-84
2023/03/12 07:52:27;;;;;;;2.08;1.30;;;;;;;;;;5097312;28;20035;-79
2023/03/12 07:54:55;;;;;;;3.70;1.52;;;;;;;;;;5115964;28;20034;-81
2023/03/12 07:57:20;;;;;;;1.92;1.33;;;;;;;;;;5080864;28;20430;-80
2023/03/12 07:59:46;;;;;;;4.70;1.58;;;;;;;;;;5115106;28;20114;-78
2023/03/12 08:02:12;;;;;;;7.13;1.52;;;;;;;;;;5114727;28;20028;-77
2023/03/12 08:04:38;;;;;;;2.88;1.23;;;;;;;;;;5096694;28;20031;-78
2023/03/12 08:07:03;;;;;;;2.05;1.50;;;;;;;;;;5080808;28;20032;-77
2023/03/12 08:09:29;;;;;;;3.90;1.20;;;;;;;;;;5097478;28;20023;-77
2023/03/12 08:11:54;;;;;;;2.33;1.17;;;;;;;;;;5097968;28;20394;-77
2023/03/12 08:14:19;;;;;;;2.35;1.55;;;;;;;;;;5063209;28;20031;-77
2023/03/12 08:16:45;;;;;;;1.98;1.23;;;;;;;;;;5115590;28;20027;-78
2023/03/12 08:19:10;;;;;;;3.05;1.67;;;;;;;;;;5079104;28;20035;-78
2023/03/12 08:21:36;;;;;;;1.67;1.10;;;;;;;;;;5114354;28;20027;-78
2023/03/12 08:24:02;;;;;;;2.83;1.30;;;;;;;;;;5095864;28;20045;-77
2023/03/12 08:26:27;;;;;;;1.30;1.20;;;;;;;;;;5095632;28;20378;-77
2023/03/12 08:28:52;;;;;;;3.28;1.48;;;;;;;;;;5095866;28;20118;-78
2023/03/12 08:31:18;;;;;;;2.40;1.40;;;;;;;;;;5079472;28;20032;-78
2023/03/12 08:33:45;;;;;;;2.38;1.23;;;;;;;;;;5095841;28;20097;-77
2023/03/12 08:36:11;;;;;;;1.35;1.10;;;;;;;;;;5097917;28;20043;-79
2023/03/12 08:38:37;;;;;;;2.83;1.33;;;;;;;;;;5115595;28;20038;-78
2023/03/12 08:41:02;;;;;;;3.22;1.30;;;;;;;;;;5078826;28;20374;-78
2023/03/12 08:43:28;;;;;;;2.30;1.20;;;;;;;;;;5078042;28;20082;-78
2023/03/12 08:45:58;;;;;;;2.13;1.25;;;;;;;;;;5114596;28;20102;-77
2023/03/12 08:48:23;;;;;;;6.93;1.20;;;;;;;;;;5096169;28;20102;-77
2023/03/12 08:50:49;;;;;;;2.70;1.33;;;;;;;;;;5095318;28;20443;-78
2023/03/12 08:53:15;;;;;;;1.00;1.00;;;;;;;;;;5115030;28;20036;-78
2023/03/12 08:55:40;;;;;;;1.40;1.13;;;;;;;;;;5096178;28;20032;-78
2023/03/12 08:58:06;;;;;;;3.70;1.40;;;;;;;;;;5096439;28;20039;-79
2023/03/12 09:00:31;;;;;;;2.88;1.40;;;;;;;;;;5114878;28;20035;-78
2023/03/12 09:02:59;;;;;;;2.20;1.58;;;;;;;;;;5114225;28;20030;-78
2023/03/12 09:05:28;;;;;;;5.13;1.85;;;;;;;;;;5096508;28;20485;-81
2023/03/12 09:07:54;;;;;;;3.15;1.30;;;;;;;;;;5079506;28;20122;-78
2023/03/12 09:10:20;;;;;;;1.98;1.15;;;;;;;;;;5096100;28;20512;-77
2023/03/12 09:12:45;;;;;;;1.83;1.30;;;;;;;;;;5076605;28;20431;-77
2023/03/12 09:15:10;;;;;;;1.30;1.13;;;;;;;;;;5095332;28;20031;-77
2023/03/12 09:17:36;;;;;;;2.83;1.17;;;;;;;;;;5078065;28;20093;-78
2023/03/12 09:20:06;;;;;;;5.53;1.70;;;;;;;;;;5113260;28;20126;-80
2023/03/12 09:22:32;;;;;;;5.60;1.60;;;;;;;;;;5081346;28;20042;-79
2023/03/12 09:24:58;;;;;;;8.27;1.67;;;;;;;;;;5097195;28;20111;-80
2023/03/12 09:27:23;;;;;;;12.77;2.53;;;;;;;;;;5077216;28;20063;-79
2023/03/12 09:29:50;;;;;;;8.07;2.30;;;;;;;;;;5076221;28;20031;-78
2023/03/12 09:32:15;;;;;;;8.38;1.90;;;;;;;;;;5097840;28;20027;-79
2023/03/12 09:34:41;;;;;;;5.90;1.83;;;;;;;;;;5079336;28;20474;-78
2023/03/12 09:37:06;;;;;;;3.88;1.75;;;;;;;;;;5096682;28;20039;-78
2023/03/12 09:39:31;;;;;;;7.18;1.75;;;;;;;;;;5096474;28;20036;-78
2023/03/12 09:41:57;;;;;;;7.13;2.20;;;;;;;;;;5093753;28;20524;-78
2023/03/12 09:44:39;;;;;;;2.85;1.95;;;;;;;;;;5095534;28;20031;-79
2023/03/12 09:47:20;;;;;;;7.55;2.40;;;;;;;;;;5079446;28;20083;-79
2023/03/12 09:49:48;;;;;;;3.97;1.70;;;;;;;;;;5096763;28;20027;-79
2023/03/12 09:52:23;;;;;;;7.55;1.83;;;;;;;;;;5114449;28;20035;-78
2023/03/12 09:55:04;;;;;;;3.88;1.67;;;;;;;;;;5072476;28;20081;-82
2023/03/12 09:57:30;;;;;;;7.60;1.95;;;;;;;;;;5080410;28;20031;-81
2023/03/12 09:59:56;;;;;;;6.13;1.95;;;;;;;;;;5082599;28;20149;-83
2023/03/12 10:02:28;;;;;;;2.92;1.58;;;;;;;;;;5066592;28;20023;-88
2023/03/12 10:05:05;;;;;;;6.45;1.70;;;;;;;;;;5077296;28;20074;-87
2023/03/12 10:07:41;;;;;;;3.08;1.42;;;;;;;;;;5064876;28;20016;-84
2023/03/12 10:10:20;;;;;;;2.38;1.42;;;;;;;;;;5087181;28;20039;-81
2023/03/12 10:13:11;;;;;;;3.17;1.58;;;;;;;;;;5084344;28;20115;-84
2023/03/12 10:15:43;;;;;;;3.10;1.50;;;;;;;;;;5084865;28;20035;-81
2023/03/12 10:18:33;;;;;;;3.33;1.48;;;;;;;;;;5101470;28;20031;-81
2023/03/12 10:21:18;;;;;;;4.35;1.85;;;;;;;;;;5068989;28;20045;-81
2023/03/12 10:23:55;;;;;;;9.18;2.67;;;;;;;;;;5081369;28;20434;-82
2023/03/12 10:26:42;;;;;;;10.85;2.25;;;;;;;;;;5088050;28;20028;-81
2023/03/12 10:29:23;;;;;;;4.65;2.33;;;;;;;;;;5083347;28;20024;-82
2023/03/12 10:32:18;;;;;;;6.75;2.08;;;;;;;;;;5064853;28;20465;-80
2023/03/12 10:34:59;;;;;;;4.38;2.08;;;;;;;;;;5084263;28;20024;-83
2023/03/12 10:37:36;;;;;;;6.80;2.40;;;;;;;;;;5094052;28;20050;-83
2023/03/12 10:40:03;;;;;;;5.80;2.35;;;;;;;;;;5098660;28;20478;-82
2023/03/12 10:42:29;;;;;;;6.03;1.83;;;;;;;;;;5121983;28;20522;-82
2023/03/12 10:44:59;;;;;;;6.90;2.40;;;;;;;;;;5083149;28;20034;-83
2023/03/12 10:47:37;;;;;;;5.10;2.15;;;;;;;;;;5100457;28;20023;-82
2023/03/12 10:50:29;;;;;;;3.45;2.08;;;;;;;;;;5099888;28;20505;-80
2023/03/12 10:53:19;;;;;;;5.10;2.65;;;;;;;;;;5091714;28;20454;-82
2023/03/12 10:56:20;;;;;;;4.90;2.13;;;;;;;;;;5119003;28;20027;-83
2023/03/12 10:58:48;;;;;;;6.50;2.42;;;;;;;;;;5100346;28;20032;-81
2023/03/12 11:01:25;;;;;;;4.40;2.33;;;;;;;;;;5119687;28;20019;-80
2023/03/12 11:03:52;;;;;;;7.40;2.35;;;;;;;;;;5105757;28;20019;-82
2023/03/12 11:06:27;;;;;;;15.63;2.75;;;;;;;;;;5103684;28;20354;-83
2023/03/12 11:09:17;;;;;;;7.22;2.30;;;;;;;;;;5092095;28;20024;-81
2023/03/12 11:11:44;;;;;;;5.28;2.53;;;;;;;;;;5088670;28;20055;-80
2023/03/12 11:14:11;;;;;;;4.35;2.20;;;;;;;;;;5108044;28;20024;-81
2023/03/12 11:16:37;;;;;;;3.95;2.55;;;;;;;;;;5115739;28;20082;-81
2023/03/12 11:19:04;;;;;;;3.17;2.13;;;;;;;;;;5108110;28;20036;-81
2023/03/12 11:21:32;;;;;;;4.03;2.50;;;;;;;;;;5059432;28;20032;-84
2023/03/12 11:23:57;;;;;;;3.40;1.98;;;;;;;;;;5094405;28;20024;-82
2023/03/12 11:26:28;;;;;;;4.82;2.22;;;;;;;;;;5110788;28;20035;-82
2023/03/12 11:29:17;;;;;;;4.32;2.13;;;;;;;;;;5089313;28;20040;-80
2023/03/12 11:32:08;;;;;;;4.53;2.25;;;;;;;;;;5112517;28;20051;-82
2023/03/12 11:34:36;;;;;;;5.00;2.30;;;;;;;;;;5113114;28;20036;-82
2023/03/12 11:37:18;;;;;;;3.95;2.00;;;;;;;;;;5091151;28;20091;-85
2023/03/12 11:39:47;;;;;;;4.22;2.08;;;;;;;;;;5089574;28;20091;-84
2023/03/12 11:42:46;;;;;;;5.65;2.22;;;;;;;;;;5107233;28;20047;-86
2023/03/12 11:45:21;;;;;;;10.88;2.35;;;;;;;;;;5126362;28;20460;-86
2023/03/12 11:48:00;;;;;;;10.45;3.13;;;;;;;;;;5103312;28;20027;-85
2023/03/12 11:51:06;;;;;;;10.23;3.25;;;;;;;;;;5102911;28;20068;-86
2023/03/12 11:53:50;;;;;;;8.32;2.85;;;;;;;;;;5116627;28;20024;-85
2023/03/12 11:56:50;;;;;;;7.45;2.63;;;;;;;;;;5098656;28;20035;-86
2023/03/12 11:59:44;;;;;;;6.20;2.70;;;;;;;;;;5067939;28;20036;-83
2023/03/12 12:02:17;;;;;;;14.85;3.30;;;;;;;;;;5113401;28;20490;-86
2023/03/12 12:05:03;;;;;;;10.45;3.13;;;;;;;;;;5098020;28;20130;-82
2023/03/12 12:07:51;;;;;;;5.20;2.67;;;;;;;;;;5114603;28;20496;-83
2023/03/12 12:10:38;;;;;;;6.00;2.53;;;;;;;;;;5115608;28;20516;-82
2023/03/12 12:13:44;;;;;;;5.50;2.30;;;;;;;;;;5116971;28;20084;-81
2023/03/12 12:16:25;;;;;;;7.53;2.20;;;;;;;;;;5053799;28;20395;-81
2023/03/12 12:19:06;;;;;;;4.30;2.00;;;;;;;;;;5106972;28;20031;-82
2023/03/12 12:21:47;;;;;;;4.32;2.28;;;;;;;;;;5081646;28;20027;-81
2023/03/12 12:24:36;;;;;;;4.18;1.90;;;;;;;;;;5117910;28;20028;-82
2023/03/12 12:27:23;;;;;;;5.43;2.40;;;;;;;;;;5098444;28;20406;-80
2023/03/12 12:30:07;;;;;;;6.38;2.30;;;;;;;;;;5119612;28;20031;-80
2023/03/12 12:32:45;;;;;;;4.40;2.15;;;;;;;;;;5099619;28;20478;-81
2023/03/12 12:35:22;;;;;;;5.15;2.17;;;;;;;;;;5117739;28;20043;-80
2023/03/12 12:37:58;;;;;;;6.45;2.05;;;;;;;;;;5100131;28;20024;-82
2023/03/12 12:40:53;;;;;;;5.70;2.65;;;;;;;;;;5097590;28;20024;-81
2023/03/12 12:43:27;;;;;;;7.68;2.50;;;;;;;;;;5059198;28;20514;-83
2023/03/12 12:45:56;;;;;;;5.32;2.33;;;;;;;;;;5098991;28;20040;-80
2023/03/12 12:48:21;;;;;;;6.38;2.20;;;;;;;;;;5081142;28;20023;-81
2023/03/12 12:50:48;;;;;;;4.07;2.35;;;;;;;;;;5115656;28;20039;-81
2023/03/12 12:53:24;;;;;;;4.78;2.25;;;;;;;;;;5098164;28;20024;-81
2023/03/12 12:56:20;;;;;;;5.63;2.15;;;;;;;;;;5098073;28;20035;-81
2023/03/12 12:58:57;;;;;;;7.95;2.40;;;;;;;;;;5097813;28;20023;-81
2023/03/12 13:01:23;;;;;;;5.78;2.30;;;;;;;;;;5096448;28;20165;-81
2023/03/12 13:03:48;;;;;;;5.35;2.30;;;;;;;;;;5081815;28;20497;-79
2023/03/12 13:06:14;;;;;;;7.88;2.30;;;;;;;;;;5080354;28;20055;-80
2023/03/12 13:08:41;;;;;;;6.10;2.15;;;;;;;;;;5078535;28;20137;-78
2023/03/12 13:11:15;;;;;;;6.07;2.45;;;;;;;;;;5113749;28;20020;-78
2023/03/12 13:13:46;;;;;;;5.45;2.53;;;;;;;;;;5114616;28;20432;-79
2023/03/12 13:16:41;;;;;;;5.72;2.45;;;;;;;;;;5096684;28;20031;-79
2023/03/12 13:19:13;;;;;;;8.25;2.90;;;;;;;;;;5089995;28;20062;-80
2023/03/12 13:21:52;;;;;;;6.20;2.20;;;;;;;;;;5097247;28;20030;-80
2023/03/12 13:24:21;;;;;;;4.70;2.13;;;;;;;;;;5097442;28;20027;-81
2023/03/12 13:26:55;;;;;;;8.52;2.80;;;;;;;;;;5096246;28;20063;-79
2023/03/12 13:29:35;;;;;;;5.85;2.72;;;;;;;;;;5097644;28;20115;-81
2023/03/12 13:32:01;;;;;;;6.68;2.40;;;;;;;;;;5101399;28;20130;-81
2023/03/12 13:34:26;;;;;;;6.15;2.42;;;;;;;;;;5098993;28;20071;-81
2023/03/12 13:36:56;;;;;;;9.95;3.20;;;;;;;;;;5097749;28;20028;-82
2023/03/12 13:39:31;;;;;;;5.97;2.72;;;;;;;;;;5084498;28;20365;-80
2023/03/12 13:41:57;;;;;;;7.80;2.90;;;;;;;;;;5100185;28;20047;-81
2023/03/12 13:44:26;;;;;;;7.22;2.97;;;;;;;;;;5083377;28;20035;-79
2023/03/12 13:47:09;;;;;;;9.18;2.92;;;;;;;;;;5099886;28;20035;-82
2023/03/12 13:49:46;;;;;;;6.25;2.65;;;;;;;;;;5118045;28;20418;-81
2023/03/12 13:52:17;;;;;;;6.90;2.65;;;;;;;;;;5099804;28;20042;-81
2023/03/12 13:54:45;;;;;;;6.93;2.53;;;;;;;;;;5118295;28;20467;-82
2023/03/12 13:57:30;;;;;;;9.98;2.78;;;;;;;;;;5100037;28;20400;-82
2023/03/12 13:59:56;;;;;;;7.93;2.78;;;;;;;;;;5100858;28;20020;-79
2023/03/12 14:02:34;;;;;;;8.30;2.80;;;;;;;;;;5083098;28;20027;-80
2023/03/12 14:05:18;;;;;;;9.82;2.90;;;;;;;;;;5084608;28;20059;-80
2023/03/12 14:08:09;;;;;;;5.88;2.38;;;;;;;;;;5084136;28;20114;-78
2023/03/12 14:11:03;;;;;;;6.95;2.67;;;;;;;;;;5101156;28;20027;-80
2023/03/12 14:13:40;;;;;;;8.13;2.55;;;;;;;;;;5083389;28;20123;-80
2023/03/12 14:16:17;;;;;;;6.53;2.50;;;;;;;;;;5099763;28;20024;-80
2023/03/12 14:18:43;;;;;;;5.53;2.50;;;;;;;;;;5100012;28;20020;-80
2023/03/12 14:21:13;;;;;;;6.57;2.67;;;;;;;;;;5119520;28;20374;-80
2023/03/12 14:23:45;;;;;;;6.90;2.53;;;;;;;;;;5082815;28;20043;-80
2023/03/12 14:26:28;;;;;;;8.93;3.20;;;;;;;;;;5100119;28;20469;-81
2023/03/12 14:29:03;;;;;;;7.22;2.42;;;;;;;;;;5101429;28;20064;-80
2023/03/12 14:31:29;;;;;;;7.65;2.75;;;;;;;;;;5100339;28;20024;-78
2023/03/12 14:34:00;;;;;;;5.72;2.72;;;;;;;;;;5101404;28;20083;-80
2023/03/12 14:36:37;;;;;;;8.85;3.10;;;;;;;;;;5120285;28;20035;-79
2023/03/12 14:39:31;;;;;;;11.30;2.97;;;;;;;;;;5083653;28;20024;-78
2023/03/12 14:42:05;;;;;;;12.88;2.83;;;;;;;;;;5099407;28;20044;-81
2023/03/12 14:44:32;;;;;;;10.50;3.00;;;;;;;;;;5101817;28;20027;-81
2023/03/12 14:47:18;;;;;;;9.00;3.60;;;;;;;;;;5100670;28;20031;-80
2023/03/12 14:49:45;;;;;;;7.88;3.17;;;;;;;;;;5117662;28;20031;-82
2023/03/12 14:52:12;;;;;;;8.00;2.33;;;;;;;;;;5102016;28;20026;-81
2023/03/12 14:54:41;;;;;;;9.50;3.00;;;;;;;;;;5100626;28;20023;-82
2023/03/12 14:57:14;;;;;;;6.57;2.83;;;;;;;;;;5118017;28;20031;-78
2023/03/12 14:59:39;;;;;;;7.72;3.03;;;;;;;;;;5118596;28;20459;-82